Bow Flora — LAEX5 — position and weather

sailwx.info

Track history (hours):
 
Tides and Currents Weather Stations Pressure Air Temp Water Temp Dewpoint Dewpoint Depression Visibility Wind Speed Wind Dir Waves Ship Positions

Bow Flora

Last reported at 2018-Apr-14 20:40 UTC. Time now 2018-Apr-23 19:32 UTC.
Position N 21°45' E 119°50'.
Warning: this ship's position is 8 days out of date.

Length 183 m; draft 6.5 m.

Type: Tanker. MMSI: 259927000.

Date/timePositionNaut miles runAvg speedWind from/ knotsBaromVisibWave heightAir tempDewpointWater temp
2018-Apr-14 20:40N 21°45' E 119°50'2114.3
2018-Apr-14 19:11N 22°06' E 119°52'314.9
2018-Apr-14 19:00N 22°09' E 119°52'815.1
2018-Apr-14 18:30N 22°16' E 119°53'815.4
2018-Apr-14 17:59N 22°24' E 119°53'713.6
2018-Apr-14 17:30N 22°30' E 119°55'714.6
2018-Apr-14 17:00N 22°33' E 120°02'714.3
2018-Apr-14 16:31N 22°36' E 120°09'5 9.5
2018-Apr-14 16:00N 22°39' E 120°12'0 0.3
2018-Apr-14 15:30N 22°40' E 120°12'3 5.6
2018-Apr-14 15:00N 22°40' E 120°09'714.3
2018-Apr-14 14:30N 22°43' E 120°02'714.7
2018-Apr-14 14:00N 22°48' E 119°56'6312.9
2018-Apr-14 09:07N 23°27' E 119°02'214.6
2018-Apr-14 08:59N 23°28' E 119°01'47412.8
2018-Apr-12 19:57N 30°22' E 123°19'3463.7
2018-Apr-12 19:25N 30°56' E 123°13'0 0.2
2018-Apr-12 18:17N 30°56' E 123°13'0 0.4
2018-Apr-12 18:00N 30°56' E 123°13'1 1.2
2018-Apr-12 17:29N 30°56' E 123°12'0 0.8
2018-Apr-12 17:00N 30°56' E 123°12'3 4.8
2018-Apr-12 16:28N 30°56' E 123°09'714.2
2018-Apr-12 16:00N 30°57' E 123°01'2014.1
2018-Apr-12 14:36N 30°58' E 122°38'113.5
2018-Apr-12 14:30N 30°58' E 122°36'714.1
2018-Apr-12 14:00N 31°00' E 122°28'1014.0
2018-Apr-12 13:17N 31°02' E 122°17'413.8
2018-Apr-12 13:00N 31°03' E 122°13'812.8
2018-Apr-12 12:21N 31°04' E 122°03'3 7.0
2018-Apr-12 11:59N 31°05' E 122°00'3 6.4
2018-Apr-12 11:30N 31°07' E 121°57'611.1
2018-Apr-12 10:59N 31°10' E 121°52'2311.7
2018-Apr-12 09:02N 31°25' E 121°31'1 7.6
2018-Apr-12 08:54N 31°25' E 121°30'4 9.0
2018-Apr-12 08:29N 31°28' E 121°27'611.3
2018-Apr-12 08:00N 31°31' E 121°22'5 9.5
2018-Apr-12 07:30N 31°35' E 121°18'714.2
2018-Apr-12 07:00N 31°40' E 121°12'713.3
2018-Apr-12 06:30N 31°44' E 121°06'3110.4
2018-Apr-12 03:32N 32°00' E 120°35'113.7
2018-Apr-12 03:29N 32°00' E 120°35'611.9
2018-Apr-12 03:00N 32°02' E 120°28'  
Track history (hours):
 
Tides and Currents Weather Stations Pressure Air Temp Water Temp Dewpoint Dewpoint Depression Visibility Wind Speed Wind Dir Waves Ship Positions

Bow Flora

Last reported at 2018-Apr-14 20:40 UTC. Time now 2018-Apr-23 19:32 UTC.
Position N 21°45' E 119°50'.
Warning: this ship's position is 8 days out of date.

Length 183 m; draft 6.5 m.

Type: Tanker. MMSI: 259927000.

Date/timePositionNaut miles runAvg speedWind from/ knotsBaromVisibWave heightAir tempDewpointWater temp
2018-Apr-14 20:40N 21°45' E 119°50'2114.3
2018-Apr-14 19:11N 22°06' E 119°52'314.9
2018-Apr-14 19:00N 22°09' E 119°52'815.1
2018-Apr-14 18:30N 22°16' E 119°53'815.4
2018-Apr-14 17:59N 22°24' E 119°53'713.6
2018-Apr-14 17:30N 22°30' E 119°55'714.6
2018-Apr-14 17:00N 22°33' E 120°02'714.3
2018-Apr-14 16:31N 22°36' E 120°09'5 9.5
2018-Apr-14 16:00N 22°39' E 120°12'0 0.3
2018-Apr-14 15:30N 22°40' E 120°12'3 5.6
2018-Apr-14 15:00N 22°40' E 120°09'714.3
2018-Apr-14 14:30N 22°43' E 120°02'714.7
2018-Apr-14 14:00N 22°48' E 119°56'6312.9
2018-Apr-14 09:07N 23°27' E 119°02'214.6
2018-Apr-14 08:59N 23°28' E 119°01'47412.8
2018-Apr-12 19:57N 30°22' E 123°19'3463.7
2018-Apr-12 19:25N 30°56' E 123°13'0 0.2
2018-Apr-12 18:17N 30°56' E 123°13'0 0.4
2018-Apr-12 18:00N 30°56' E 123°13'1 1.2
2018-Apr-12 17:29N 30°56' E 123°12'0 0.8
2018-Apr-12 17:00N 30°56' E 123°12'3 4.8
2018-Apr-12 16:28N 30°56' E 123°09'714.2
2018-Apr-12 16:00N 30°57' E 123°01'2014.1
2018-Apr-12 14:36N 30°58' E 122°38'113.5
2018-Apr-12 14:30N 30°58' E 122°36'714.1
2018-Apr-12 14:00N 31°00' E 122°28'1014.0
2018-Apr-12 13:17N 31°02' E 122°17'413.8
2018-Apr-12 13:00N 31°03' E 122°13'812.8
2018-Apr-12 12:21N 31°04' E 122°03'3 7.0
2018-Apr-12 11:59N 31°05' E 122°00'3 6.4
2018-Apr-12 11:30N 31°07' E 121°57'611.1
2018-Apr-12 10:59N 31°10' E 121°52'2311.7
2018-Apr-12 09:02N 31°25' E 121°31'1 7.6
2018-Apr-12 08:54N 31°25' E 121°30'4 9.0
2018-Apr-12 08:29N 31°28' E 121°27'611.3
2018-Apr-12 08:00N 31°31' E 121°22'5 9.5
2018-Apr-12 07:30N 31°35' E 121°18'714.2
2018-Apr-12 07:00N 31°40' E 121°12'713.3
2018-Apr-12 06:30N 31°44' E 121°06'3110.4
2018-Apr-12 03:32N 32°00' E 120°35'113.7
2018-Apr-12 03:29N 32°00' E 120°35'611.9
2018-Apr-12 03:00N 32°02' E 120°28'  

Dump ship's entire track history